Time,TemperatureF,DewpointF,PressureIn,WindDirection,WindDirectionDegrees,WindSpeedMPH,WindSpeedGustMPH,Humidity,HourlyPrecipIn,Conditions,Clouds,dailyrainin,SoftwareType,DateUTC
2013-03-06 00:01:00,39.2,29.0,29.98,NE,53,0.0,3.0,67,0.00,,,0.00,weatherlink.com 1.10,2013-03-06 05:01:00,
2013-03-06 00:16:00,39.2,29.0,29.98,SE,124,0.0,0.0,68,0.00,,,0.00,weatherlink.com 1.10,2013-03-06 05:16:00,
2013-03-06 00:31:00,39.2,29.0,29.98,NNE,27,0.0,2.0,68,0.00,,,0.00,weatherlink.com 1.10,2013-03-06 05:31:00,
2013-03-06 00:46:00,39.4,30.0,29.97,ENE,78,0.0,3.0,69,0.00,,,0.00,weatherlink.com 1.10,2013-03-06 05:46:00,
2013-03-06 01:01:00,39.4,31.0,29.97,East,99,0.0,6.0,71,0.00,,,0.00,weatherlink.com 1.10,2013-03-06 06:01:00,
2013-03-06 01:16:00,39.3,31.0,29.96,NE,44,1.0,3.0,73,0.00,,,0.00,weatherlink.com 1.10,2013-03-06 06:16:00,
2013-03-06 01:31:00,39.2,32.0,29.96,ENE,70,0.0,3.0,74,0.00,,,0.00,weatherlink.com 1.10,2013-03-06 06:31:00,
2013-03-06 01:46:00,39.1,32.0,29.96,NNE,27,0.0,3.0,75,0.00,,,0.00,weatherlink.com 1.10,2013-03-06 06:46:00,
2013-03-06 02:01:00,39.1,32.0,29.96,NE,55,0.0,4.0,75,0.00,,,0.00,weatherlink.com 1.10,2013-03-06 07:01:00,
2013-03-06 02:16:00,39.0,32.0,29.95,East,97,0.0,2.0,76,0.00,,,0.00,weatherlink.com 1.10,2013-03-06 07:16:00,
2013-03-06 02:32:00,39.3,32.0,29.94,SSE,153,0.0,5.0,75,0.00,,,0.00,weatherlink.com 1.10,2013-03-06 07:32:00,
2013-03-06 02:47:00,39.5,32.0,29.93,East,80,1.0,6.0,74,0.00,,,0.00,weatherlink.com 1.10,2013-03-06 07:47:00,
2013-03-06 03:02:00,39.4,32.0,29.93,WSW,238,2.0,8.0,75,0.00,,,0.00,weatherlink.com 1.10,2013-03-06 08:02:00,
2013-03-06 03:17:00,39.3,32.0,29.91,ENE,68,4.0,9.0,75,0.00,,,0.00,weatherlink.com 1.10,2013-03-06 08:17:00,
2013-03-06 03:32:00,39.2,32.0,29.91,East,87,3.0,11.0,75,0.00,,,0.00,weatherlink.com 1.10,2013-03-06 08:32:00,
2013-03-06 03:47:00,38.7,31.0,29.90,North,6,3.0,7.0,75,0.00,,,0.00,weatherlink.com 1.10,2013-03-06 08:47:00,
2013-03-06 04:02:00,38.5,31.0,29.91,NNE,13,1.0,7.0,75,0.00,,,0.00,weatherlink.com 1.10,2013-03-06 09:02:00,
2013-03-06 04:17:00,38.4,31.0,29.91,East,99,6.0,11.0,76,0.00,,,0.00,weatherlink.com 1.10,2013-03-06 09:17:00,
2013-03-06 04:32:00,38.3,31.0,29.91,East,101,1.0,12.0,76,0.00,,,0.00,weatherlink.com 1.10,2013-03-06 09:32:00,
2013-03-06 04:47:00,38.2,32.0,29.91,NNE,30,2.0,12.0,77,0.00,,,0.00,weatherlink.com 1.10,2013-03-06 09:47:00,
2013-03-06 05:02:00,38.1,32.0,29.91,SSW,201,1.0,9.0,78,0.00,,,0.00,weatherlink.com 1.10,2013-03-06 10:02:00,
2013-03-06 05:17:00,38.2,32.0,29.91,NW,318,6.0,10.0,77,0.00,,,0.00,weatherlink.com 1.10,2013-03-06 10:17:00,
2013-03-06 05:32:00,38.3,32.0,29.91,NE,43,1.0,7.0,77,0.00,,,0.00,weatherlink.com 1.10,2013-03-06 10:32:00,
2013-03-06 05:47:00,38.3,31.0,29.90,NE,52,3.0,11.0,76,0.00,,,0.00,weatherlink.com 1.10,2013-03-06 10:47:00,
2013-03-06 06:02:00,38.4,31.0,29.90,NE,38,2.0,8.0,76,0.00,,,0.00,weatherlink.com 1.10,2013-03-06 11:02:00,
2013-03-06 06:17:00,38.7,31.0,29.91,NNE,33,5.0,11.0,75,0.00,,,0.00,weatherlink.com 1.10,2013-03-06 11:17:00,
2013-03-06 06:33:00,38.5,32.0,29.90,North,11,5.0,10.0,77,0.00,,,0.00,weatherlink.com 1.10,2013-03-06 11:33:00,
2013-03-06 06:47:00,38.1,32.0,29.89,NNE,15,5.0,15.0,80,0.00,,,0.00,weatherlink.com 1.10,2013-03-06 11:47:00,
2013-03-06 07:02:00,38.1,33.0,29.89,SE,135,7.0,13.0,81,0.00,,,0.00,weatherlink.com 1.10,2013-03-06 12:02:00,
2013-03-06 07:17:00,37.9,33.0,29.89,ENE,69,2.0,13.0,81,0.00,,,0.00,weatherlink.com 1.10,2013-03-06 12:17:00,
2013-03-06 07:32:00,38.0,33.0,29.89,SE,146,1.0,15.0,82,0.00,,,0.00,weatherlink.com 1.10,2013-03-06 12:32:00,
2013-03-06 07:47:00,37.9,33.0,29.90,East,94,3.0,14.0,82,0.00,,,0.00,weatherlink.com 1.10,2013-03-06 12:47:00,
2013-03-06 08:02:00,38.0,33.0,29.91,SSE,150,5.0,14.0,81,0.00,,,0.00,weatherlink.com 1.10,2013-03-06 13:02:00,
2013-03-06 08:17:00,38.3,33.0,29.91,ENE,70,5.0,12.0,81,0.00,,,0.00,weatherlink.com 1.10,2013-03-06 13:17:00,
2013-03-06 08:32:00,38.3,33.0,29.91,NNE,15,6.0,11.0,82,0.00,,,0.00,weatherlink.com 1.10,2013-03-06 13:32:00,
2013-03-06 08:47:00,38.6,33.0,29.90,East,89,6.0,13.0,80,0.00,,,0.00,weatherlink.com 1.10,2013-03-06 13:47:00,
2013-03-06 09:02:00,38.7,33.0,29.90,SW,218,8.0,12.0,80,0.00,,,0.00,weatherlink.com 1.10,2013-03-06 14:02:00,
2013-03-06 09:17:00,38.8,33.0,29.90,East,86,6.0,11.0,79,0.00,,,0.00,weatherlink.com 1.10,2013-03-06 14:17:00,
2013-03-06 09:32:00,39.1,33.0,29.89,SSE,147,5.0,15.0,79,0.00,,,0.00,weatherlink.com 1.10,2013-03-06 14:32:00,
2013-03-06 09:47:00,39.0,33.0,29.89,NW,314,2.0,16.0,80,0.00,,,0.00,weatherlink.com 1.10,2013-03-06 14:47:00,
2013-03-06 10:03:00,38.8,33.0,29.89,East,84,4.0,18.0,81,0.00,,,0.00,weatherlink.com 1.10,2013-03-06 15:03:00,
2013-03-06 10:18:00,38.9,34.0,29.89,NNE,12,1.0,14.0,82,0.00,,,0.00,weatherlink.com 1.10,2013-03-06 15:18:00,
2013-03-06 10:33:00,39.1,34.0,29.88,ESE,106,9.0,21.0,82,0.00,,,0.00,weatherlink.com 1.10,2013-03-06 15:33:00,
2013-03-06 10:48:00,39.3,34.0,29.88,NE,47,7.0,15.0,81,0.00,,,0.00,weatherlink.com 1.10,2013-03-06 15:48:00,
2013-03-06 11:03:00,39.5,34.0,29.87,ESE,106,7.0,13.0,81,0.00,,,0.00,weatherlink.com 1.10,2013-03-06 16:03:00,
2013-03-06 11:18:00,40.0,34.0,29.88,SE,125,8.0,20.0,79,0.00,,,0.00,weatherlink.com 1.10,2013-03-06 16:18:00,
2013-03-06 11:33:00,40.4,35.0,29.87,East,85,7.0,15.0,80,0.00,,,0.00,weatherlink.com 1.10,2013-03-06 16:33:00,
2013-03-06 11:48:00,40.6,35.0,29.87,ESE,118,8.0,16.0,79,0.00,,,0.00,weatherlink.com 1.10,2013-03-06 16:48:00,
2013-03-06 12:03:00,40.4,35.0,29.87,ESE,108,11.0,15.0,81,0.00,,,0.00,weatherlink.com 1.10,2013-03-06 17:03:00,
2013-03-06 12:18:00,41.1,34.0,29.86,NNE,29,7.0,20.0,76,0.00,,,0.00,weatherlink.com 1.10,2013-03-06 17:18:00,
2013-03-06 12:33:00,41.6,34.0,29.86,ENE,57,14.0,17.0,74,0.00,,,0.00,weatherlink.com 1.10,2013-03-06 17:33:00,
2013-03-06 12:48:00,41.5,33.0,29.86,SE,124,5.0,15.0,73,0.00,,,0.00,weatherlink.com 1.10,2013-03-06 17:48:00,
2013-03-06 13:03:00,41.1,33.0,29.86,SE,126,7.0,19.0,72,0.00,,,0.00,weatherlink.com 1.10,2013-03-06 18:03:00,
2013-03-06 13:18:00,41.1,32.0,29.86,North,356,4.0,17.0,71,0.00,,,0.00,weatherlink.com 1.10,2013-03-06 18:18:00,
2013-03-06 13:33:00,41.3,32.0,29.86,NE,43,13.0,21.0,70,0.00,,,0.00,weatherlink.com 1.10,2013-03-06 18:33:00,
2013-03-06 13:48:00,41.5,32.0,29.85,ENE,59,6.0,21.0,69,0.00,,,0.00,weatherlink.com 1.10,2013-03-06 18:48:00,
2013-03-06 14:03:00,40.2,33.0,29.86,ENE,60,14.0,21.0,76,0.00,,,0.00,weatherlink.com 1.10,2013-03-06 19:03:00,
2013-03-06 14:18:00,40.9,32.0,29.85,NNE,19,1.0,14.0,70,0.00,,,0.00,weatherlink.com 1.10,2013-03-06 19:18:00,
2013-03-06 14:33:00,40.5,33.0,29.86,ESE,122,4.0,15.0,75,0.00,,,0.00,weatherlink.com 1.10,2013-03-06 19:33:00,
2013-03-06 14:48:00,40.6,33.0,29.85,NE,46,6.0,17.0,74,0.00,,,0.00,weatherlink.com 1.10,2013-03-06 19:48:00,
2013-03-06 15:03:00,40.6,33.0,29.85,ESE,113,6.0,15.0,75,0.00,,,0.00,weatherlink.com 1.10,2013-03-06 20:03:00,
2013-03-06 15:18:00,38.8,34.0,29.86,ESE,117,4.0,12.0,84,0.00,,,0.00,weatherlink.com 1.10,2013-03-06 20:18:00,
2013-03-06 15:33:00,39.0,34.0,29.86,ESE,102,2.0,12.0,83,0.00,,,0.00,weatherlink.com 1.10,2013-03-06 20:33:00,
2013-03-06 15:48:00,38.8,33.0,29.87,East,79,6.0,18.0,80,0.00,,,0.00,weatherlink.com 1.10,2013-03-06 20:48:00,
2013-03-06 16:03:00,39.3,32.0,29.87,East,97,5.0,14.0,75,0.00,,,0.00,weatherlink.com 1.10,2013-03-06 21:03:00,
2013-03-06 16:18:00,39.9,32.0,29.88,East,82,5.0,14.0,72,0.00,,,0.00,weatherlink.com 1.10,2013-03-06 21:18:00,
2013-03-06 16:33:00,40.2,31.0,29.88,East,83,7.0,15.0,70,0.00,,,0.00,weatherlink.com 1.10,2013-03-06 21:33:00,
2013-03-06 16:48:00,40.4,31.0,29.87,WNW,283,2.0,8.0,68,0.00,,,0.00,weatherlink.com 1.10,2013-03-06 21:48:00,
2013-03-06 17:03:00,40.7,30.0,29.88,East,92,6.0,14.0,67,0.00,,,0.00,weatherlink.com 1.10,2013-03-06 22:03:00,
2013-03-06 17:18:00,40.7,30.0,29.88,East,86,12.0,14.0,66,0.00,,,0.00,weatherlink.com 1.10,2013-03-06 22:18:00,
2013-03-06 17:33:00,40.9,30.0,29.88,SE,133,3.0,15.0,65,0.00,,,0.00,weatherlink.com 1.10,2013-03-06 22:33:00,
2013-03-06 17:48:00,40.9,30.0,29.88,ENE,75,3.0,18.0,65,0.00,,,0.00,weatherlink.com 1.10,2013-03-06 22:48:00,
2013-03-06 18:03:00,40.9,30.0,29.88,ESE,102,8.0,18.0,65,0.00,,,0.00,weatherlink.com 1.10,2013-03-06 23:03:00,
2013-03-06 18:18:00,41.0,30.0,29.89,NE,54,11.0,18.0,65,0.00,,,0.00,weatherlink.com 1.10,2013-03-06 23:18:00,
2013-03-06 18:33:00,41.0,30.0,29.90,ESE,103,1.0,15.0,64,0.00,,,0.00,weatherlink.com 1.10,2013-03-06 23:33:00,
2013-03-06 18:48:00,40.9,29.0,29.90,ESE,105,5.0,17.0,64,0.00,,,0.00,weatherlink.com 1.10,2013-03-06 23:48:00,
2013-03-06 19:03:00,40.7,30.0,29.91,SSE,163,2.0,14.0,65,0.00,,,0.00,weatherlink.com 1.10,2013-03-07 00:03:00,
2013-03-06 19:18:00,40.3,30.0,29.91,SSE,168,10.0,19.0,66,0.00,,,0.00,weatherlink.com 1.10,2013-03-07 00:18:00,
2013-03-06 19:33:00,40.0,30.0,29.92,East,94,8.0,18.0,67,0.00,,,0.00,weatherlink.com 1.10,2013-03-07 00:33:00,
2013-03-06 19:48:00,39.7,29.0,29.92,NE,40,6.0,16.0,67,0.00,,,0.00,weatherlink.com 1.10,2013-03-07 00:48:00,
2013-03-06 20:03:00,39.4,29.0,29.92,SE,129,7.0,21.0,67,0.00,,,0.00,weatherlink.com 1.10,2013-03-07 01:03:00,
2013-03-06 20:18:00,39.3,29.0,29.93,SSW,204,5.0,14.0,67,0.00,,,0.00,weatherlink.com 1.10,2013-03-07 01:18:00,
2013-03-06 20:33:00,39.0,29.0,29.93,SSE,158,1.0,18.0,68,0.00,,,0.00,weatherlink.com 1.10,2013-03-07 01:33:00,
2013-03-06 20:48:00,38.0,30.0,29.93,SW,221,5.0,9.0,74,0.00,,,0.00,weatherlink.com 1.10,2013-03-07 01:48:00,
2013-03-06 21:03:00,37.1,31.0,29.93,WSW,237,4.0,15.0,78,0.00,,,0.00,weatherlink.com 1.10,2013-03-07 02:03:00,
2013-03-06 21:18:00,36.2,31.0,29.94,North,358,2.0,11.0,82,0.00,,,0.00,weatherlink.com 1.10,2013-03-07 02:18:00,
2013-03-06 21:33:00,35.8,31.0,29.93,SE,144,0.0,11.0,83,0.00,,,0.00,weatherlink.com 1.10,2013-03-07 02:33:00,
2013-03-06 21:48:00,36.3,30.0,29.93,East,80,4.0,9.0,79,0.00,,,0.00,weatherlink.com 1.10,2013-03-07 02:48:00,
2013-03-06 22:03:00,37.2,29.0,29.93,SE,128,4.0,14.0,73,0.00,,,0.00,weatherlink.com 1.10,2013-03-07 03:03:00,
2013-03-06 22:18:00,37.7,29.0,29.93,East,100,6.0,14.0,70,0.00,,,0.00,weatherlink.com 1.10,2013-03-07 03:18:00,
2013-03-06 22:33:00,37.9,29.0,29.93,East,96,4.0,11.0,69,0.00,,,0.00,weatherlink.com 1.10,2013-03-07 03:33:00,
2013-03-06 22:48:00,37.9,28.0,29.94,South,188,1.0,12.0,68,0.00,,,0.00,weatherlink.com 1.10,2013-03-07 03:48:00,
2013-03-06 23:03:00,38.1,28.0,29.94,SSE,162,2.0,9.0,68,0.00,,,0.00,weatherlink.com 1.10,2013-03-07 04:03:00,
2013-03-06 23:19:00,38.1,28.0,29.94,ESE,114,12.0,12.0,67,0.00,,,0.00,weatherlink.com 1.10,2013-03-07 04:19:00,
2013-03-06 23:34:00,38.1,28.0,29.94,SE,139,2.0,10.0,67,0.00,,,0.00,weatherlink.com 1.10,2013-03-07 04:34:00,
2013-03-06 23:49:00,38.1,28.0,29.94,SE,125,2.0,29.0,66,0.00,,,0.00,weatherlink.com 1.10,2013-03-07 04:49:00,